Time,TemperatureF,DewpointF,PressureIn,WindDirection,WindDirectionDegrees,WindSpeedMPH,WindSpeedGustMPH,Humidity,HourlyPrecipIn,Conditions,Clouds,dailyrainin,SoftwareType,DateUTC
2013-07-02 00:10:00,77.4,75.0,30.03,South,176,0.0,-999.0,92,-99.99,,,0.21,weatherlink.com 1.10,2013-07-02 04:10:00,
2013-07-02 00:25:00,77.6,75.0,30.03,South,185,0.0,-999.0,91,-99.99,,,0.21,weatherlink.com 1.10,2013-07-02 04:25:00,
2013-07-02 00:40:00,77.6,75.0,30.02,SSW,208,1.0,-999.0,90,-99.99,,,0.21,weatherlink.com 1.10,2013-07-02 04:40:00,
2013-07-02 00:55:00,77.7,75.0,30.02,South,178,6.0,-999.0,90,-99.99,,,0.21,weatherlink.com 1.10,2013-07-02 04:55:00,
2013-07-02 01:10:00,77.9,75.0,30.02,South,175,8.0,-999.0,90,-99.99,,,0.21,weatherlink.com 1.10,2013-07-02 05:10:00,
2013-07-02 01:25:00,78.1,75.0,30.02,South,178,0.0,-999.0,90,-99.99,,,0.21,weatherlink.com 1.10,2013-07-02 05:25:00,
2013-07-02 01:40:00,78.1,75.0,30.03,South,174,7.0,-999.0,91,-99.99,,,0.00,weatherlink.com 1.10,2013-07-02 05:40:00,
2013-07-02 01:55:00,78.1,75.0,30.03,SSW,192,9.0,-999.0,91,-99.99,,,0.00,weatherlink.com 1.10,2013-07-02 05:55:00,
2013-07-02 02:10:00,78.3,76.0,30.03,South,185,1.0,-999.0,91,-99.99,,,0.00,weatherlink.com 1.10,2013-07-02 06:10:00,
2013-07-02 02:25:00,78.3,76.0,30.04,SSW,195,7.0,-999.0,91,-99.99,,,0.00,weatherlink.com 1.10,2013-07-02 06:25:00,
2013-07-02 02:40:00,78.1,75.0,30.03,SSW,206,13.0,-999.0,91,-99.99,,,0.00,weatherlink.com 1.10,2013-07-02 06:40:00,
2013-07-02 02:55:00,75.6,72.0,30.03,WSW,243,11.0,-999.0,88,-99.99,,,0.01,weatherlink.com 1.10,2013-07-02 06:55:00,
2013-07-02 03:10:00,74.6,72.0,30.04,WSW,247,10.0,-999.0,91,-99.99,,,0.05,weatherlink.com 1.10,2013-07-02 07:10:00,
2013-07-02 03:25:00,74.4,72.0,30.04,SW,226,0.0,-999.0,93,-99.99,,,0.07,weatherlink.com 1.10,2013-07-02 07:25:00,
2013-07-02 03:40:00,74.2,72.0,30.03,WSW,248,2.0,-999.0,94,-99.99,,,0.07,weatherlink.com 1.10,2013-07-02 07:40:00,
2013-07-02 03:55:00,74.4,73.0,30.03,SW,227,0.0,-999.0,94,-99.99,,,0.07,weatherlink.com 1.10,2013-07-02 07:55:00,
2013-07-02 04:10:00,74.6,73.0,30.03,SSW,193,0.0,-999.0,94,-99.99,,,0.07,weatherlink.com 1.10,2013-07-02 08:10:00,
2013-07-02 04:25:00,75.1,74.0,30.04,SSW,195,0.0,-999.0,95,-99.99,,,0.07,weatherlink.com 1.10,2013-07-02 08:25:00,
2013-07-02 04:40:00,75.3,74.0,30.05,SSW,193,0.0,-999.0,94,-99.99,,,0.07,weatherlink.com 1.10,2013-07-02 08:40:00,
2013-07-02 04:55:00,75.6,74.0,30.06,SSE,151,0.0,-999.0,94,-99.99,,,0.07,weatherlink.com 1.10,2013-07-02 08:55:00,
2013-07-02 05:11:00,75.6,74.0,30.05,South,181,8.0,-999.0,93,-99.99,,,0.07,weatherlink.com 1.10,2013-07-02 09:11:00,
2013-07-02 05:26:00,76.0,74.0,30.05,SSE,168,10.0,-999.0,92,-99.99,,,0.07,weatherlink.com 1.10,2013-07-02 09:26:00,
2013-07-02 05:41:00,75.8,73.0,30.06,SSE,168,0.0,-999.0,92,-99.99,,,0.07,weatherlink.com 1.10,2013-07-02 09:41:00,
2013-07-02 05:56:00,76.1,74.0,30.06,SSE,162,0.0,-999.0,92,-99.99,,,0.07,weatherlink.com 1.10,2013-07-02 09:56:00,
2013-07-02 06:11:00,75.8,73.0,30.06,SW,216,0.0,-999.0,90,-99.99,,,0.07,weatherlink.com 1.10,2013-07-02 10:11:00,
2013-07-02 06:26:00,76.3,73.0,30.07,South,186,0.0,-999.0,90,-99.99,,,0.07,weatherlink.com 1.10,2013-07-02 10:26:00,
2013-07-02 06:41:00,76.3,73.0,30.07,SSW,193,0.0,-999.0,90,-99.99,,,0.07,weatherlink.com 1.10,2013-07-02 10:41:00,
2013-07-02 06:56:00,76.3,73.0,30.08,South,185,0.0,-999.0,90,-99.99,,,0.07,weatherlink.com 1.10,2013-07-02 10:56:00,
2013-07-02 07:26:00,76.8,73.0,30.09,South,172,0.0,-999.0,88,-99.99,,,0.07,weatherlink.com 1.10,2013-07-02 11:26:00,
2013-07-02 07:41:00,77.2,74.0,30.09,South,169,0.0,-999.0,88,-99.99,,,0.07,weatherlink.com 1.10,2013-07-02 11:41:00,
2013-07-02 07:56:00,77.6,73.0,30.09,SSE,167,7.0,-999.0,86,-99.99,,,0.08,weatherlink.com 1.10,2013-07-02 11:56:00,
2013-07-02 08:11:00,78.3,74.0,30.10,SSE,165,2.0,-999.0,86,-99.99,,,0.08,weatherlink.com 1.10,2013-07-02 12:11:00,
2013-07-02 08:26:00,78.6,74.0,30.10,South,186,0.0,-999.0,86,-99.99,,,0.08,weatherlink.com 1.10,2013-07-02 12:26:00,
2013-07-02 08:41:00,78.8,74.0,30.11,South,172,0.0,-999.0,85,-99.99,,,0.08,weatherlink.com 1.10,2013-07-02 12:41:00,
2013-07-02 08:56:00,79.6,75.0,30.11,South,175,0.0,-999.0,86,-99.99,,,0.08,weatherlink.com 1.10,2013-07-02 12:56:00,
2013-07-02 09:11:00,79.9,74.0,30.11,SSE,165,4.0,-999.0,83,-99.99,,,0.08,weatherlink.com 1.10,2013-07-02 13:11:00,
2013-07-02 09:26:00,79.6,74.0,30.11,SSE,162,0.0,-999.0,84,-99.99,,,0.08,weatherlink.com 1.10,2013-07-02 13:26:00,
2013-07-02 09:41:00,80.3,74.0,30.11,South,171,6.0,-999.0,82,-99.99,,,0.08,weatherlink.com 1.10,2013-07-02 13:41:00,
2013-07-02 09:56:00,80.7,75.0,30.12,SSE,148,0.0,-999.0,82,-99.99,,,0.08,weatherlink.com 1.10,2013-07-02 13:56:00,
2013-07-02 10:11:00,81.2,75.0,30.11,South,171,0.0,-999.0,82,-99.99,,,0.08,weatherlink.com 1.10,2013-07-02 14:11:00,
2013-07-02 10:26:00,81.2,75.0,30.12,South,184,7.0,-999.0,81,-99.99,,,0.08,weatherlink.com 1.10,2013-07-02 14:26:00,
2013-07-02 10:41:00,81.4,76.0,30.12,SSE,161,7.0,-999.0,83,-99.99,,,0.08,weatherlink.com 1.10,2013-07-02 14:41:00,
2013-07-02 10:56:00,82.2,76.0,30.12,South,184,1.0,-999.0,81,-99.99,,,0.08,weatherlink.com 1.10,2013-07-02 14:56:00,
2013-07-02 11:11:00,82.8,76.0,30.12,South,191,10.0,-999.0,81,-99.99,,,0.08,weatherlink.com 1.10,2013-07-02 15:11:00,
2013-07-02 11:26:00,82.8,77.0,30.12,SSE,155,1.0,-999.0,82,-99.99,,,0.08,weatherlink.com 1.10,2013-07-02 15:26:00,
2013-07-02 11:41:00,82.8,77.0,30.12,South,175,10.0,-999.0,82,-99.99,,,0.08,weatherlink.com 1.10,2013-07-02 15:41:00,
2013-07-02 11:56:00,83.2,78.0,30.12,South,174,11.0,-999.0,83,-99.99,,,0.08,weatherlink.com 1.10,2013-07-02 15:56:00,
2013-07-02 12:11:00,82.8,77.0,30.12,SSE,165,9.0,-999.0,82,-99.99,,,0.08,weatherlink.com 1.10,2013-07-02 16:11:00,
2013-07-02 12:26:00,83.2,77.0,30.13,South,175,10.0,-999.0,82,-99.99,,,0.08,weatherlink.com 1.10,2013-07-02 16:26:00,
2013-07-02 12:41:00,83.0,77.0,30.13,South,175,9.0,-999.0,83,-99.99,,,0.08,weatherlink.com 1.10,2013-07-02 16:41:00,
2013-07-02 12:56:00,83.0,77.0,30.13,SSE,167,6.0,-999.0,83,-99.99,,,0.08,weatherlink.com 1.10,2013-07-02 16:56:00,
2013-07-02 13:11:00,-999.0,-99.9,30.13,North,-999,-999.0,-999.0,-999,-99.99,,,0.08,weatherlink.com 1.10,2013-07-02 17:11:00,
2013-07-02 13:26:00,-999.0,-99.9,30.12,North,-999,-999.0,-999.0,-999,-99.99,,,0.08,weatherlink.com 1.10,2013-07-02 17:26:00,
2013-07-02 13:41:00,-999.0,-99.9,30.12,North,-999,-999.0,-999.0,-999,-99.99,,,0.08,weatherlink.com 1.10,2013-07-02 17:41:00,
2013-07-02 13:56:00,-999.0,-99.9,30.12,North,-999,-999.0,-999.0,-999,-99.99,,,0.08,weatherlink.com 1.10,2013-07-02 17:56:00,
2013-07-02 14:11:00,-999.0,-99.9,30.12,North,-999,-999.0,-999.0,-999,-99.99,,,0.08,weatherlink.com 1.10,2013-07-02 18:11:00,
2013-07-02 14:26:00,-999.0,-99.9,30.13,North,-999,-999.0,-999.0,-999,-99.99,,,0.08,weatherlink.com 1.10,2013-07-02 18:26:00,
2013-07-02 14:41:00,-999.0,-99.9,30.13,North,-999,-999.0,-999.0,-999,-99.99,,,0.08,weatherlink.com 1.10,2013-07-02 18:41:00,
2013-07-02 14:56:00,-999.0,-99.9,30.13,North,-999,-999.0,-999.0,-999,-99.99,,,0.08,weatherlink.com 1.10,2013-07-02 18:56:00,
2013-07-02 15:11:00,-999.0,-99.9,30.13,North,-999,-999.0,-999.0,-999,-99.99,,,0.08,weatherlink.com 1.10,2013-07-02 19:11:00,
2013-07-02 15:26:00,-999.0,-99.9,30.12,North,-999,-999.0,-999.0,-999,-99.99,,,0.08,weatherlink.com 1.10,2013-07-02 19:26:00,
2013-07-02 15:41:00,83.4,-99.9,30.12,South,179,7.0,-999.0,-999,-99.99,,,0.08,weatherlink.com 1.10,2013-07-02 19:41:00,
2013-07-02 15:56:00,83.4,77.0,30.12,South,181,6.0,-999.0,82,-99.99,,,0.08,weatherlink.com 1.10,2013-07-02 19:56:00,
2013-07-02 16:11:00,83.4,77.0,30.12,SSW,202,4.0,-999.0,82,-99.99,,,0.08,weatherlink.com 1.10,2013-07-02 20:11:00,
2013-07-02 16:26:00,83.6,78.0,30.12,SSW,212,4.0,-999.0,82,-99.99,,,0.08,weatherlink.com 1.10,2013-07-02 20:26:00,
2013-07-02 16:41:00,83.6,77.0,30.12,SSW,203,4.0,-999.0,81,-99.99,,,0.08,weatherlink.com 1.10,2013-07-02 20:41:00,
2013-07-02 16:56:00,82.8,77.0,30.12,SSE,168,6.0,-999.0,82,-99.99,,,0.08,weatherlink.com 1.10,2013-07-02 20:56:00,
2013-07-02 17:11:00,83.0,77.0,30.12,South,171,0.0,-999.0,83,-99.99,,,0.08,weatherlink.com 1.10,2013-07-02 21:11:00,
2013-07-02 17:26:00,83.2,77.0,30.12,SSE,161,2.0,-999.0,82,-99.99,,,0.08,weatherlink.com 1.10,2013-07-02 21:26:00,
2013-07-02 17:41:00,82.4,77.0,30.12,South,176,8.0,-999.0,83,-99.99,,,0.08,weatherlink.com 1.10,2013-07-02 21:41:00,
2013-07-02 17:56:00,82.0,77.0,30.12,SSE,167,7.0,-999.0,85,-99.99,,,0.08,weatherlink.com 1.10,2013-07-02 21:56:00,
2013-07-02 18:11:00,81.8,77.0,30.12,South,176,0.0,-999.0,84,-99.99,,,0.08,weatherlink.com 1.10,2013-07-02 22:11:00,
2013-07-02 18:26:00,81.6,76.0,30.12,South,178,0.0,-999.0,83,-99.99,,,0.08,weatherlink.com 1.10,2013-07-02 22:26:00,
2013-07-02 18:41:00,81.2,76.0,30.12,SSE,165,0.0,-999.0,83,-99.99,,,0.08,weatherlink.com 1.10,2013-07-02 22:41:00,
2013-07-02 18:56:00,80.5,77.0,30.13,South,172,0.0,-999.0,88,-99.99,,,0.09,weatherlink.com 1.10,2013-07-02 22:56:00,
2013-07-02 19:11:00,79.6,76.0,30.13,SSE,162,0.0,-999.0,88,-99.99,,,0.09,weatherlink.com 1.10,2013-07-02 23:11:00,
2013-07-02 19:26:00,79.2,75.0,30.14,South,179,0.0,-999.0,88,-99.99,,,0.09,weatherlink.com 1.10,2013-07-02 23:26:00,
2013-07-02 19:41:00,79.4,75.0,30.14,SSE,160,0.0,-999.0,86,-99.99,,,0.09,weatherlink.com 1.10,2013-07-02 23:41:00,
2013-07-02 19:56:00,79.6,75.0,30.14,South,169,2.0,-999.0,85,-99.99,,,0.09,weatherlink.com 1.10,2013-07-02 23:56:00,
2013-07-02 20:11:00,79.8,75.0,30.14,SSE,165,0.0,-999.0,86,-99.99,,,0.09,weatherlink.com 1.10,2013-07-03 00:11:00,
2013-07-02 20:26:00,79.8,76.0,30.14,SSE,160,6.0,-999.0,87,-99.99,,,0.09,weatherlink.com 1.10,2013-07-03 00:26:00,
2013-07-02 20:41:00,79.8,76.0,30.14,SSE,167,0.0,-999.0,87,-99.99,,,0.09,weatherlink.com 1.10,2013-07-03 00:41:00,
2013-07-02 20:56:00,78.1,74.0,30.14,SSE,164,0.0,-999.0,86,-99.99,,,0.09,weatherlink.com 1.10,2013-07-03 00:56:00,
2013-07-02 21:11:00,78.5,75.0,30.15,South,179,4.0,-999.0,88,-99.99,,,0.09,weatherlink.com 1.10,2013-07-03 01:11:00,
2013-07-02 21:26:00,77.7,74.0,30.16,SSE,162,4.0,-999.0,89,-99.99,,,0.10,weatherlink.com 1.10,2013-07-03 01:26:00,
2013-07-02 21:41:00,76.8,74.0,30.17,SSE,161,1.0,-999.0,91,-99.99,,,0.11,weatherlink.com 1.10,2013-07-03 01:41:00,
2013-07-02 21:56:00,76.8,74.0,30.17,SSE,167,0.0,-999.0,92,-99.99,,,0.11,weatherlink.com 1.10,2013-07-03 01:56:00,
2013-07-02 22:11:00,77.0,74.0,30.17,South,172,0.0,-999.0,91,-99.99,,,0.11,weatherlink.com 1.10,2013-07-03 02:11:00,
2013-07-02 22:26:00,77.4,74.0,30.17,SE,140,7.0,-999.0,90,-99.99,,,0.11,weatherlink.com 1.10,2013-07-03 02:26:00,
2013-07-02 22:41:00,77.9,75.0,30.17,SSE,167,4.0,-999.0,89,-99.99,,,0.11,weatherlink.com 1.10,2013-07-03 02:41:00,
2013-07-02 23:11:00,77.0,74.0,30.18,SE,141,6.0,-999.0,90,-99.99,,,0.11,weatherlink.com 1.10,2013-07-03 03:11:00,
2013-07-02 23:26:00,77.0,74.0,30.17,SE,144,0.0,-999.0,91,-99.99,,,0.11,weatherlink.com 1.10,2013-07-03 03:26:00,
2013-07-02 23:41:00,77.6,75.0,30.17,SE,143,1.0,-999.0,91,-99.99,,,0.11,weatherlink.com 1.10,2013-07-03 03:41:00,
2013-07-02 23:56:00,77.4,75.0,30.17,SSE,162,0.0,-999.0,91,-99.99,,,0.11,weatherlink.com 1.10,2013-07-03 03:56:00,